Time;durP1;ratioP1;P1;durP2;ratioP2;P2;SDS_P1;SDS_P2;PMS_P1;PMS_P2;Temp;Humidity;BMP_temperature;BMP_pressure;BME280_temperature;BME280_humidity;BME280_pressure;Samples;Min_cycle;Max_cycle;Signal;HPM_P1;HPM_P2
2022/11/13 00:01:07;;;;;;;2.22;0.68;;;;;;;10.80;59.95;98724.13;4976971;28;20111;-67
2022/11/13 00:03:33;;;;;;;1.35;0.65;;;;;;;10.75;60.57;98723.47;4982663;28;20030;-67
2022/11/13 00:06:00;;;;;;;2.47;0.50;;;;;;;10.69;60.80;98716.78;4986834;28;20046;-66
2022/11/13 00:08:26;;;;;;;2.55;0.70;;;;;;;10.77;59.98;98734.59;4999514;28;20053;-66
2022/11/13 00:10:51;;;;;;;0.50;0.50;;;;;;;10.74;59.92;98725.19;4999398;28;20085;-67
2022/11/13 00:13:17;;;;;;;2.35;0.52;;;;;;;10.79;59.95;98733.63;4973455;28;20193;-66
2022/11/13 00:15:42;;;;;;;4.07;0.70;;;;;;;10.80;60.15;98740.53;4981764;28;20045;-66
2022/11/13 00:18:08;;;;;;;0.73;0.65;;;;;;;10.74;60.25;98739.91;4983560;28;20074;-66
2022/11/13 00:20:35;;;;;;;1.20;0.70;;;;;;;10.59;59.71;98743.88;4984771;28;20322;-66
2022/11/13 00:23:00;;;;;;;1.48;0.73;;;;;;;10.69;58.83;98734.91;4989453;28;20019;-66
2022/11/13 00:25:26;;;;;;;1.48;0.70;;;;;;;10.76;58.74;98733.75;4990271;28;20218;-66
2022/11/13 00:27:52;;;;;;;1.92;0.65;;;;;;;10.58;58.76;98740.47;4984725;28;20023;-68
2022/11/13 00:30:17;;;;;;;3.42;1.20;;;;;;;10.66;58.51;98753.09;4983152;28;20022;-67
2022/11/13 00:32:43;;;;;;;1.30;0.80;;;;;;;10.55;57.86;98747.50;4984396;28;20315;-68
2022/11/13 00:35:08;;;;;;;5.15;0.95;;;;;;;10.71;58.30;98751.22;4982605;28;20031;-67
2022/11/13 00:37:34;;;;;;;4.30;1.00;;;;;;;10.64;58.76;98750.56;4982360;28;20027;-67
2022/11/13 00:40:00;;;;;;;2.05;0.80;;;;;;;10.58;58.41;98750.81;4984325;28;20023;-67
2022/11/13 00:42:25;;;;;;;2.20;1.02;;;;;;;10.58;58.07;98737.03;4984288;28;20029;-67
2022/11/13 00:44:51;;;;;;;0.93;0.77;;;;;;;10.49;58.66;98741.66;4984272;28;20219;-67
2022/11/13 00:47:16;;;;;;;2.95;1.33;;;;;;;10.55;58.67;98755.28;4983324;28;20030;-67
2022/11/13 00:49:42;;;;;;;5.53;1.23;;;;;;;10.63;58.88;98753.22;4984074;28;20069;-66
2022/11/13 00:52:07;;;;;;;2.15;0.80;;;;;;;10.57;59.61;98730.16;4984273;28;20042;-66
2022/11/13 00:54:33;;;;;;;2.92;0.63;;;;;;;10.45;59.46;98744.41;4984247;28;20196;-66
2022/11/13 00:56:59;;;;;;;2.15;0.80;;;;;;;10.44;59.32;98747.88;4983075;28;20085;-67
2022/11/13 00:59:24;;;;;;;1.27;0.68;;;;;;;10.47;59.53;98758.13;4983048;28;20027;-67
2022/11/13 01:01:50;;;;;;;1.63;0.95;;;;;;;10.62;59.54;98746.38;4983074;28;20319;-67
2022/11/13 01:04:16;;;;;;;1.30;0.70;;;;;;;10.63;60.22;98737.69;5015566;28;20101;-66
2022/11/13 01:06:43;;;;;;;3.38;0.70;;;;;;;10.57;60.52;98753.47;4984168;28;20073;-67
2022/11/13 01:09:08;;;;;;;0.90;0.63;;;;;;;10.44;59.57;98763.41;4982276;28;20098;-66
2022/11/13 01:11:34;;;;;;;2.30;0.80;;;;;;;10.47;59.76;98756.38;4975983;28;20031;-66
2022/11/13 01:13:59;;;;;;;1.50;0.70;;;;;;;10.52;59.70;98759.66;4988042;28;20030;-67
2022/11/13 01:16:26;;;;;;;1.73;0.68;;;;;;;10.40;59.93;98751.47;4987931;28;20030;-67
2022/11/13 01:18:54;;;;;;;3.65;0.80;;;;;;;10.43;59.14;98751.38;4987816;28;20266;-65
2022/11/13 01:21:25;;;;;;;1.55;0.70;;;;;;;10.34;60.17;98737.00;4987831;28;20046;-66
2022/11/13 01:23:51;;;;;;;1.33;0.77;;;;;;;10.53;59.75;98748.41;5000295;28;20102;-65
2022/11/13 01:26:19;;;;;;;1.20;0.63;;;;;;;10.43;59.46;98746.19;4987637;28;20026;-66
2022/11/13 01:28:46;;;;;;;2.80;0.65;;;;;;;10.48;59.00;98747.72;4987383;28;20037;-66
2022/11/13 01:31:17;;;;;;;3.00;0.47;;;;;;;10.41;58.71;98743.66;4987648;28;20098;-65
2022/11/13 01:33:44;;;;;;;1.42;0.80;;;;;;;10.44;59.34;98759.06;4987715;28;20030;-66
2022/11/13 01:36:13;;;;;;;1.10;0.60;;;;;;;10.39;59.02;98735.13;4987144;28;20034;-66
2022/11/13 01:38:39;;;;;;;3.50;1.08;;;;;;;10.39;58.45;98736.84;4987708;28;20034;-66
2022/11/13 01:41:05;;;;;;;5.03;0.80;;;;;;;10.24;59.96;98745.97;4987112;28;20035;-67
2022/11/13 01:43:35;;;;;;;0.70;0.40;;;;;;;10.23;59.08;98739.94;4986650;28;20034;-67
2022/11/13 01:46:19;;;;;;;1.88;0.50;;;;;;;10.19;59.55;98715.09;4987247;28;20219;-67
2022/11/13 01:48:53;;;;;;;0.77;0.70;;;;;;;10.06;59.80;98716.41;4986787;28;20061;-67
2022/11/13 01:51:30;;;;;;;1.23;0.80;;;;;;;10.24;60.47;98743.41;4988695;28;20046;-67
2022/11/13 01:53:57;;;;;;;2.75;0.90;;;;;;;10.26;60.41;98757.97;4986957;28;20031;-67
2022/11/13 01:56:24;;;;;;;2.30;0.93;;;;;;;10.11;60.39;98736.06;4987030;28;20299;-66
2022/11/13 01:59:13;;;;;;;1.08;0.75;;;;;;;10.23;59.98;98728.75;4986012;28;20034;-67
2022/11/13 02:01:39;;;;;;;3.28;0.85;;;;;;;10.06;59.87;98739.69;4986987;28;20054;-67
2022/11/13 02:04:05;;;;;;;3.53;1.10;;;;;;;10.12;59.92;98745.50;4985917;28;20042;-66
2022/11/13 02:06:48;;;;;;;3.60;1.00;;;;;;;10.09;60.08;98731.81;4986740;28;20143;-66
2022/11/13 02:09:16;;;;;;;2.75;1.20;;;;;;;10.16;60.65;98743.66;4986645;28;20035;-67
2022/11/13 02:11:42;;;;;;;2.85;0.88;;;;;;;10.07;61.14;98750.00;4986733;28;20027;-66
2022/11/13 02:14:10;;;;;;;1.65;0.82;;;;;;;9.98;61.51;98737.38;4985604;28;20277;-66
2022/11/13 02:16:38;;;;;;;2.72;0.98;;;;;;;9.94;60.48;98740.97;4986290;28;20057;-67
2022/11/13 02:19:13;;;;;;;1.90;0.80;;;;;;;9.95;60.49;98740.09;4986716;28;20119;-66
2022/11/13 02:21:57;;;;;;;1.45;0.93;;;;;;;9.77;61.73;98731.19;4986794;28;20089;-66
2022/11/13 02:24:24;;;;;;;3.10;0.73;;;;;;;9.67;60.99;98722.91;4998881;28;20056;-67
2022/11/13 02:26:52;;;;;;;2.15;0.68;;;;;;;9.71;61.72;98711.56;4986742;28;20089;-67
2022/11/13 02:29:18;;;;;;;2.50;0.80;;;;;;;9.80;61.19;98719.00;4976708;28;20042;-67
2022/11/13 02:31:44;;;;;;;3.28;0.70;;;;;;;9.92;60.33;98724.66;4986526;28;20046;-67
2022/11/13 02:34:09;;;;;;;3.42;0.60;;;;;;;9.89;60.31;98725.63;4986515;28;20213;-67
2022/11/13 02:36:35;;;;;;;2.58;1.05;;;;;;;9.93;60.81;98721.16;4986282;28;20122;-65
2022/11/13 02:39:06;;;;;;;2.22;0.60;;;;;;;9.89;nan;98725.63;4987475;28;20037;-65
2022/11/13 02:41:31;;;;;;;1.73;0.60;;;;;;;9.80;61.11;98721.59;5005865;28;20041;-66
2022/11/13 02:43:57;;;;;;;2.53;0.80;;;;;;;9.73;60.91;98678.72;4989485;28;20030;-65
2022/11/13 02:46:23;;;;;;;1.65;0.73;;;;;;;9.79;60.30;98704.41;4986362;28;20031;-68
2022/11/13 02:48:48;;;;;;;2.53;0.70;;;;;;;9.76;60.75;98712.28;4986215;28;20089;-66
2022/11/13 02:51:14;;;;;;;1.35;0.70;;;;;;;9.63;59.98;98721.31;4986387;28;21720;-66
2022/11/13 02:53:39;;;;;;;1.90;1.20;;;;;;;9.89;59.87;98714.41;4986451;28;20327;-66
2022/11/13 02:56:05;;;;;;;3.05;0.88;;;;;;;9.90;59.26;98705.75;4986150;28;20054;-66
2022/11/13 02:58:31;;;;;;;1.50;0.60;;;;;;;9.80;59.19;98705.22;5000808;28;20196;-66
2022/11/13 03:00:59;;;;;;;0.70;0.60;;;;;;;9.78;60.59;98694.94;4986116;28;20061;-66
2022/11/13 03:03:25;;;;;;;2.35;0.75;;;;;;;9.78;60.28;98694.94;4985859;28;20026;-67
2022/11/13 03:05:51;;;;;;;2.42;0.70;;;;;;;9.75;59.64;98689.03;4985631;28;20034;-66
2022/11/13 03:08:16;;;;;;;1.90;0.70;;;;;;;9.81;60.92;98702.59;5003956;28;20352;-66
2022/11/13 03:10:42;;;;;;;1.20;0.63;;;;;;;9.60;61.14;98713.66;5016984;28;20038;-66
2022/11/13 03:13:07;;;;;;;1.63;0.60;;;;;;;9.64;59.79;98692.81;4986552;28;20331;-66
2022/11/13 03:15:33;;;;;;;2.30;0.70;;;;;;;9.61;61.72;98698.09;4985688;28;20034;-66
2022/11/13 03:18:04;;;;;;;2.45;0.47;;;;;;;9.57;59.96;98686.19;4984730;28;20031;-67
2022/11/13 03:20:30;;;;;;;2.10;0.70;;;;;;;9.67;61.34;98705.63;4985647;28;20292;-67
2022/11/13 03:22:56;;;;;;;4.38;0.80;;;;;;;9.74;61.78;98724.38;4990966;28;20054;-66
2022/11/13 03:25:22;;;;;;;0.95;0.57;;;;;;;9.54;65.02;98724.22;4993772;28;20034;-66
2022/11/13 03:27:47;;;;;;;3.38;1.00;;;;;;;9.41;67.01;98722.03;4985399;28;20030;-65
2022/11/13 03:30:13;;;;;;;1.63;0.73;;;;;;;9.39;68.05;98703.16;4985263;28;20311;-64
2022/11/13 03:32:39;;;;;;;2.25;0.57;;;;;;;9.18;69.25;98694.34;4985464;28;20231;-64
2022/11/13 03:35:05;;;;;;;1.55;0.80;;;;;;;9.22;70.85;98715.75;4984617;28;20034;-66
2022/11/13 03:37:31;;;;;;;1.92;0.50;;;;;;;9.25;69.43;98733.72;4984708;28;20282;-66
2022/11/13 03:39:56;;;;;;;1.30;0.52;;;;;;;9.35;69.12;98718.78;4985463;28;20023;-65
2022/11/13 03:42:22;;;;;;;0.90;0.60;;;;;;;9.33;69.46;98717.13;4985204;28;20269;-65
2022/11/13 03:44:47;;;;;;;3.38;0.70;;;;;;;9.28;68.10;98723.31;4984154;28;20668;-65
2022/11/13 03:47:14;;;;;;;1.48;0.75;;;;;;;9.13;68.69;98722.06;4983924;28;20061;-66
2022/11/13 03:49:39;;;;;;;1.65;0.60;;;;;;;8.96;68.73;98718.28;4985096;28;20082;-66
2022/11/13 03:52:05;;;;;;;3.53;1.40;;;;;;;9.07;69.32;98725.66;4985153;28;20030;-66
2022/11/13 03:54:31;;;;;;;2.38;0.50;;;;;;;8.94;69.54;98708.88;4985058;28;20047;-65
2022/11/13 03:56:56;;;;;;;1.00;0.65;;;;;;;8.93;70.62;98705.44;4985017;28;20038;-65
2022/11/13 03:59:22;;;;;;;3.30;0.60;;;;;;;8.90;70.57;98695.19;4983702;28;20034;-66
2022/11/13 04:01:48;;;;;;;0.60;0.60;;;;;;;8.76;71.81;98693.03;4984941;28;20094;-65
2022/11/13 04:04:14;;;;;;;0.50;0.40;;;;;;;8.86;69.04;98698.75;4984715;28;20096;-65
2022/11/13 04:06:40;;;;;;;1.83;0.73;;;;;;;8.98;69.84;98705.31;4984657;28;20074;-66
2022/11/13 04:09:06;;;;;;;3.45;1.10;;;;;;;8.83;69.41;98698.84;4984959;28;20259;-65
2022/11/13 04:11:32;;;;;;;0.57;0.57;;;;;;;8.96;69.52;98702.78;4984971;28;20299;-66
2022/11/13 04:13:58;;;;;;;0.65;0.60;;;;;;;8.97;68.61;98690.69;4984752;28;20050;-67
2022/11/13 04:16:24;;;;;;;2.50;0.65;;;;;;;8.89;65.18;98713.31;4984229;28;20104;-66
2022/11/13 04:18:49;;;;;;;1.38;0.73;;;;;;;9.05;66.94;98750.72;4993908;28;20027;-65
2022/11/13 04:21:15;;;;;;;1.40;0.80;;;;;;;9.00;67.35;98770.66;4984256;28;20029;-67
2022/11/13 04:23:41;;;;;;;0.55;0.55;;;;;;;8.82;66.67;98759.13;4995482;28;20022;-66
2022/11/13 04:26:06;;;;;;;1.90;0.80;;;;;;;8.76;66.74;98760.16;4987178;28;20030;-65
2022/11/13 04:28:32;;;;;;;0.60;0.40;;;;;;;8.82;65.24;98746.22;4983209;28;20030;-67
2022/11/13 04:30:57;;;;;;;1.20;0.73;;;;;;;8.92;66.14;98755.41;4984449;28;20022;-66
2022/11/13 04:33:23;;;;;;;1.13;0.47;;;;;;;8.85;65.53;98750.44;4984320;28;20312;-67
2022/11/13 04:35:49;;;;;;;1.80;0.85;;;;;;;8.70;65.04;98738.84;4980046;28;20232;-68
2022/11/13 04:38:15;;;;;;;4.38;1.00;;;;;;;8.82;65.45;98733.31;4982125;28;20085;-66
2022/11/13 04:40:41;;;;;;;2.40;0.95;;;;;;;8.74;66.82;98740.47;4984378;28;20034;-67
2022/11/13 04:43:07;;;;;;;2.25;1.17;;;;;;;8.70;66.20;98742.25;4984196;28;20105;-66
2022/11/13 04:45:33;;;;;;;4.30;1.20;;;;;;;8.80;66.98;98742.84;4984086;28;20102;-66
2022/11/13 04:47:58;;;;;;;3.10;0.60;;;;;;;8.76;66.62;98736.91;4984305;28;20215;-66
2022/11/13 04:50:24;;;;;;;1.52;0.73;;;;;;;8.85;65.46;98742.69;5015320;28;20053;-66
2022/11/13 04:52:50;;;;;;;1.13;0.80;;;;;;;8.79;65.15;98746.31;4971462;28;20043;-66
2022/11/13 04:55:15;;;;;;;3.13;0.98;;;;;;;8.68;64.31;98733.72;4974472;28;20101;-67
2022/11/13 04:57:41;;;;;;;3.75;1.00;;;;;;;8.77;63.96;98748.94;4984293;28;20097;-67
2022/11/13 05:00:08;;;;;;;4.20;1.65;;;;;;;8.76;64.03;98752.41;4984312;28;20082;-66
2022/11/13 05:02:35;;;;;;;2.42;0.85;;;;;;;8.90;64.56;98748.59;4982924;28;20027;-66
2022/11/13 05:05:00;;;;;;;1.58;0.80;;;;;;;8.98;63.63;98746.63;4983543;28;20203;-66
2022/11/13 05:07:26;;;;;;;1.60;0.80;;;;;;;8.94;63.63;98739.84;5015347;28;20031;-65
2022/11/13 05:09:53;;;;;;;2.00;0.75;;;;;;;8.98;63.28;98749.22;4984064;28;20030;-66
2022/11/13 05:12:19;;;;;;;2.67;0.80;;;;;;;8.90;62.87;98753.75;4983956;28;20035;-67
2022/11/13 05:14:45;;;;;;;3.05;1.10;;;;;;;9.01;63.28;98762.03;4983987;28;20075;-68
2022/11/13 05:17:11;;;;;;;4.97;1.38;;;;;;;8.94;63.46;98756.19;4983794;28;20039;-66
2022/11/13 05:19:38;;;;;;;2.08;1.40;;;;;;;9.02;63.62;98768.88;4983771;28;20077;-66
2022/11/13 05:22:05;;;;;;;1.60;0.90;;;;;;;9.07;63.23;98756.66;4984040;28;20029;-65
2022/11/13 05:24:31;;;;;;;2.17;0.98;;;;;;;9.02;64.46;98783.50;4997999;28;20116;-67
2022/11/13 05:26:57;;;;;;;3.47;1.10;;;;;;;8.96;64.14;98775.06;4983457;28;20042;-66
2022/11/13 05:29:22;;;;;;;5.18;0.88;;;;;;;9.02;64.95;98786.97;4983672;28;20102;-65
2022/11/13 05:31:48;;;;;;;2.72;0.82;;;;;;;8.86;64.76;98777.97;4983752;28;20099;-65
2022/11/13 05:34:14;;;;;;;1.75;0.95;;;;;;;8.76;64.74;98770.47;4982671;28;20098;-65
2022/11/13 05:36:40;;;;;;;3.28;1.00;;;;;;;8.92;65.15;98767.44;4983764;28;20031;-66
2022/11/13 05:39:05;;;;;;;5.78;1.00;;;;;;;8.96;63.85;98775.06;4983603;28;20211;-65
2022/11/13 05:41:31;;;;;;;2.85;0.80;;;;;;;8.98;64.62;98772.44;4983883;28;20313;-66
2022/11/13 05:43:57;;;;;;;1.58;0.75;;;;;;;8.95;65.85;98772.50;4984464;28;20027;-66
2022/11/13 05:46:25;;;;;;;2.28;0.73;;;;;;;8.94;65.49;98766.50;4983658;28;20101;-66
2022/11/13 05:48:56;;;;;;;1.98;0.77;;;;;;;8.79;64.54;98765.25;4983706;28;20296;-67
2022/11/13 05:51:28;;;;;;;5.10;1.10;;;;;;;8.87;66.02;98767.59;4983539;28;20237;-67
2022/11/13 05:53:54;;;;;;;3.20;0.80;;;;;;;9.05;64.61;98792.03;4982156;28;20030;-67
2022/11/13 05:56:22;;;;;;;1.33;0.82;;;;;;;8.97;65.10;98801.72;5014880;28;20053;-66
2022/11/13 05:58:49;;;;;;;1.40;0.93;;;;;;;8.82;65.26;98818.50;5017234;28;20026;-67
2022/11/13 06:01:19;;;;;;;1.58;0.90;;;;;;;8.94;65.95;98828.50;4987269;28;20037;-67
2022/11/13 06:03:46;;;;;;;1.77;1.00;;;;;;;8.99;65.33;98856.75;4986963;28;20328;-66
2022/11/13 06:06:15;;;;;;;1.40;0.90;;;;;;;8.76;67.70;98860.81;4986965;28;20346;-67
2022/11/13 06:08:41;;;;;;;1.77;0.60;;;;;;;8.54;70.41;98870.06;4985421;28;20048;-67
2022/11/13 06:11:10;;;;;;;1.27;0.80;;;;;;;8.32;72.20;98849.09;4983501;28;20331;-67
2022/11/13 06:13:36;;;;;;;0.52;0.52;;;;;;;8.36;67.96;98859.28;4979525;28;20044;-66
2022/11/13 06:16:07;;;;;;;1.25;0.55;;;;;;;8.50;68.15;98863.28;4987219;28;20031;-65
2022/11/13 06:18:33;;;;;;;1.52;0.73;;;;;;;8.56;67.73;98869.09;4986202;28;20038;-65
2022/11/13 06:21:04;;;;;;;1.45;0.52;;;;;;;8.56;67.99;98874.28;4986245;28;20026;-66
2022/11/13 06:23:35;;;;;;;0.95;0.70;;;;;;;8.44;67.13;98833.28;4996236;28;20085;-66
2022/11/13 06:26:10;;;;;;;3.05;1.40;;;;;;;8.62;65.67;98884.44;4990944;28;20034;-66
2022/11/13 06:28:36;;;;;;;1.75;0.80;;;;;;;8.50;65.13;98873.59;4985412;28;20200;-66
2022/11/13 06:31:11;;;;;;;2.47;0.80;;;;;;;8.60;64.86;98890.53;4986235;28;20037;-66
2022/11/13 06:33:37;;;;;;;2.45;0.60;;;;;;;8.57;65.00;98882.88;4986460;28;20039;-66
2022/11/13 06:36:05;;;;;;;2.67;0.70;;;;;;;8.59;64.40;98889.69;4981831;28;20192;-67
2022/11/13 06:38:32;;;;;;;1.00;0.60;;;;;;;8.61;64.64;98885.34;4984648;28;20238;-66
2022/11/13 06:40:59;;;;;;;2.50;0.43;;;;;;;8.56;65.23;98905.25;4986275;28;20035;-67
2022/11/13 06:43:25;;;;;;;0.60;0.60;;;;;;;8.59;66.00;98897.44;4986303;28;20118;-66
2022/11/13 06:45:50;;;;;;;1.58;0.75;;;;;;;8.70;64.75;98901.47;4986309;28;20322;-67
2022/11/13 06:48:16;;;;;;;1.95;0.57;;;;;;;8.70;65.18;98889.41;4986203;28;20030;-67
2022/11/13 06:50:41;;;;;;;1.52;0.63;;;;;;;8.77;66.97;98906.41;4986410;28;20042;-67
2022/11/13 06:53:07;;;;;;;2.08;0.80;;;;;;;8.70;66.07;98902.31;4985996;28;20062;-66
2022/11/13 06:55:33;;;;;;;1.13;0.50;;;;;;;8.88;65.97;98920.75;4986115;28;20042;-66
2022/11/13 06:57:58;;;;;;;3.03;0.70;;;;;;;8.67;66.82;98923.03;4984540;28;20341;-66
2022/11/13 07:00:24;;;;;;;2.22;0.80;;;;;;;8.76;66.98;98929.69;4987604;28;20026;-66
2022/11/13 07:02:50;;;;;;;0.80;0.70;;;;;;;8.72;68.79;98928.94;5004281;28;20025;-69
2022/11/13 07:05:16;;;;;;;1.20;0.60;;;;;;;8.56;67.20;98940.53;5005150;28;20062;-66
2022/11/13 07:07:42;;;;;;;1.70;0.60;;;;;;;8.58;67.29;98947.34;4987361;28;20223;-66
2022/11/13 07:10:08;;;;;;;1.10;0.60;;;;;;;8.36;68.18;98939.25;4986006;28;20138;-66
2022/11/13 07:12:33;;;;;;;2.17;0.70;;;;;;;8.49;68.25;98951.91;4968452;28;20101;-66
2022/11/13 07:14:59;;;;;;;2.40;0.75;;;;;;;8.49;68.39;98942.41;4985692;28;20081;-66
2022/11/13 07:17:25;;;;;;;0.73;0.60;;;;;;;8.40;67.51;98948.63;4985587;28;20038;-67
2022/11/13 07:19:50;;;;;;;0.75;0.57;;;;;;;8.47;68.36;98951.94;4985742;28;20042;-66
2022/11/13 07:22:16;;;;;;;0.85;0.50;;;;;;;8.46;68.86;98953.69;4985409;28;20311;-66
2022/11/13 07:24:41;;;;;;;3.05;1.00;;;;;;;8.49;68.94;98959.63;5001034;28;20029;-67
2022/11/13 07:27:07;;;;;;;0.77;0.60;;;;;;;8.62;66.92;98968.75;4985551;28;20053;-66
2022/11/13 07:29:35;;;;;;;1.13;0.80;;;;;;;8.51;66.78;98953.56;4985416;28;20042;-67
2022/11/13 07:32:00;;;;;;;3.05;0.98;;;;;;;8.50;67.63;98962.19;4985515;28;20055;-66
2022/11/13 07:34:26;;;;;;;2.38;1.33;;;;;;;8.55;65.26;98964.63;4984121;28;20150;-68
2022/11/13 07:36:52;;;;;;;1.38;0.80;;;;;;;8.49;65.25;98962.22;4983839;28;20031;-67
2022/11/13 07:39:17;;;;;;;1.20;0.60;;;;;;;8.47;65.18;98977.75;4985052;28;20027;-66
2022/11/13 07:41:43;;;;;;;2.25;0.70;;;;;;;8.38;63.99;98983.06;4984732;28;20302;-66
2022/11/13 07:44:09;;;;;;;3.67;0.80;;;;;;;8.57;63.89;98978.38;4983841;28;20034;-68
2022/11/13 07:46:34;;;;;;;1.65;0.80;;;;;;;9.04;60.79;98988.38;4984753;28;20031;-67
2022/11/13 07:49:00;;;;;;;0.82;0.75;;;;;;;9.30;60.45;98990.22;4985040;28;20030;-67
2022/11/13 07:51:26;;;;;;;0.90;0.65;;;;;;;8.98;60.73;98979.88;4985092;28;20308;-67
2022/11/13 07:53:51;;;;;;;0.63;0.40;;;;;;;8.74;58.77;99011.50;4985012;28;20235;-67
2022/11/13 07:56:17;;;;;;;1.30;0.70;;;;;;;8.89;60.38;98990.47;4984825;28;20033;-67
2022/11/13 07:58:42;;;;;;;0.90;0.80;;;;;;;8.74;59.70;98996.00;4985040;28;20054;-66
2022/11/13 08:01:09;;;;;;;1.50;0.40;;;;;;;8.93;59.62;98978.31;4984764;28;20126;-66
2022/11/13 08:03:34;;;;;;;1.17;0.55;;;;;;;8.54;60.74;98979.28;4984688;28;20035;-66
2022/11/13 08:06:05;;;;;;;0.70;0.55;;;;;;;8.63;59.68;98994.53;4984854;28;20049;-67
2022/11/13 08:08:31;;;;;;;0.70;0.60;;;;;;;8.56;60.99;98985.25;4983595;28;20131;-65
2022/11/13 08:10:57;;;;;;;4.07;0.70;;;;;;;8.55;60.71;98985.28;4984613;28;20058;-65
2022/11/13 08:13:22;;;;;;;1.40;0.50;;;;;;;8.61;60.26;98996.31;4984454;28;20030;-66
2022/11/13 08:15:48;;;;;;;0.65;0.60;;;;;;;8.75;59.72;98998.56;4984609;28;20027;-66
2022/11/13 08:18:14;;;;;;;3.75;0.90;;;;;;;8.64;60.03;98998.81;4984573;28;20377;-66
2022/11/13 08:20:39;;;;;;;2.55;0.98;;;;;;;8.61;60.77;99008.38;4984221;28;20026;-66
2022/11/13 08:23:05;;;;;;;0.70;0.70;;;;;;;8.73;61.28;99008.06;4989980;28;20034;-65
2022/11/13 08:25:32;;;;;;;0.93;0.65;;;;;;;8.89;59.82;99010.25;4993723;28;20026;-65
2022/11/13 08:27:58;;;;;;;1.63;0.52;;;;;;;8.73;60.40;99005.47;4984517;28;20275;-66
2022/11/13 08:30:26;;;;;;;0.95;0.47;;;;;;;8.75;59.75;99000.28;4984254;28;20358;-66
2022/11/13 08:32:52;;;;;;;2.17;0.60;;;;;;;8.73;59.65;99002.06;4983231;28;20048;-66
2022/11/13 08:35:18;;;;;;;0.95;0.52;;;;;;;9.01;58.87;99014.25;4984185;28;20030;-67
2022/11/13 08:37:44;;;;;;;2.17;0.60;;;;;;;9.10;59.69;99027.78;4995701;28;20235;-65
2022/11/13 08:40:10;;;;;;;1.65;0.70;;;;;;;8.62;59.57;99035.88;5002700;28;20221;-67
2022/11/13 08:42:35;;;;;;;2.70;0.52;;;;;;;8.90;59.63;99028.28;5005190;28;20029;-67
2022/11/13 08:45:02;;;;;;;1.08;0.63;;;;;;;8.73;60.39;99028.72;5006987;28;20026;-68
2022/11/13 08:47:29;;;;;;;1.83;0.60;;;;;;;9.25;59.05;99039.47;4985922;28;20081;-66
2022/11/13 08:49:55;;;;;;;1.55;0.60;;;;;;;9.23;58.96;99040.38;4984096;28;20042;-66
2022/11/13 08:52:21;;;;;;;1.60;0.70;;;;;;;9.10;59.54;99048.44;5015329;28;20338;-66
2022/11/13 08:54:47;;;;;;;2.42;0.70;;;;;;;9.01;59.76;99055.56;4984355;28;20030;-66
2022/11/13 08:57:12;;;;;;;1.25;0.50;;;;;;;8.91;58.58;99048.06;4982846;28;20338;-67
2022/11/13 08:59:38;;;;;;;0.82;0.55;;;;;;;8.95;59.75;99062.59;4984096;28;20042;-66
2022/11/13 09:02:04;;;;;;;0.63;0.55;;;;;;;8.70;59.18;99054.59;4984168;28;20039;-67
2022/11/13 09:04:30;;;;;;;0.77;0.70;;;;;;;8.93;58.90;99063.53;4992406;28;20046;-67
2022/11/13 09:06:55;;;;;;;1.38;0.60;;;;;;;8.90;58.97;99061.84;5002287;28;20023;-66
2022/11/13 09:09:22;;;;;;;0.90;0.50;;;;;;;8.85;58.35;99058.56;5003063;28;20033;-66
2022/11/13 09:11:48;;;;;;;1.05;0.57;;;;;;;9.01;58.65;99056.44;4985935;28;20064;-65
2022/11/13 09:14:13;;;;;;;0.75;0.60;;;;;;;8.87;59.40;99054.19;4985466;28;20030;-68
2022/11/13 09:16:39;;;;;;;1.02;0.50;;;;;;;8.68;58.36;99043.47;4983644;28;20039;-67
2022/11/13 09:19:05;;;;;;;3.60;0.93;;;;;;;8.59;59.64;99064.34;4982554;28;20219;-67
2022/11/13 09:21:30;;;;;;;1.42;0.50;;;;;;;8.48;60.01;99062.03;4983678;28;20382;-66
2022/11/13 09:23:56;;;;;;;1.55;0.55;;;;;;;8.63;60.55;99071.13;4997382;28;20030;-66
2022/11/13 09:26:22;;;;;;;1.05;0.40;;;;;;;8.43;60.21;99080.13;4986875;28;20043;-66
2022/11/13 09:28:48;;;;;;;0.73;0.40;;;;;;;8.48;61.02;99072.34;4983811;28;20086;-67
2022/11/13 09:31:13;;;;;;;0.68;0.60;;;;;;;8.65;61.04;99069.38;4983102;28;20022;-67
2022/11/13 09:33:39;;;;;;;1.15;0.50;;;;;;;8.71;61.57;99068.38;4985810;28;20041;-67
2022/11/13 09:36:13;;;;;;;1.10;0.73;;;;;;;8.36;60.66;99073.41;4987719;28;20031;-67
2022/11/13 09:38:39;;;;;;;0.68;0.68;;;;;;;8.50;62.10;99091.19;4987540;28;20030;-68
2022/11/13 09:41:08;;;;;;;1.60;0.38;;;;;;;8.50;61.44;99086.03;4987633;28;20363;-67
2022/11/13 09:43:51;;;;;;;0.85;0.55;;;;;;;8.54;62.44;99097.16;4987469;28;20031;-67
2022/11/13 09:46:32;;;;;;;0.80;0.60;;;;;;;8.37;61.46;99077.69;4987265;28;20065;-68
2022/11/13 09:49:06;;;;;;;2.75;0.60;;;;;;;8.38;62.02;99094.88;4987340;28;20058;-67
2022/11/13 09:51:37;;;;;;;2.30;0.50;;;;;;;8.56;60.58;99095.38;4985278;28;20139;-67
2022/11/13 09:54:10;;;;;;;1.02;0.80;;;;;;;8.61;61.66;99088.38;4967969;28;20027;-67
2022/11/13 09:56:43;;;;;;;1.73;0.57;;;;;;;8.62;62.50;99095.22;4980590;28;20102;-68
2022/11/13 09:59:21;;;;;;;2.05;0.80;;;;;;;8.66;61.09;99122.66;4995889;28;20077;-66
2022/11/13 10:01:50;;;;;;;1.50;0.52;;;;;;;8.42;60.52;99124.03;4995267;28;20333;-68
2022/11/13 10:04:24;;;;;;;1.17;0.60;;;;;;;8.12;60.60;99131.53;5003263;28;20342;-67
2022/11/13 10:07:08;;;;;;;0.50;0.40;;;;;;;8.43;61.40;99133.47;5005809;28;20076;-66
2022/11/13 10:09:40;;;;;;;1.60;0.85;;;;;;;8.44;62.08;99133.47;4985565;28;20039;-68
2022/11/13 10:12:08;;;;;;;1.30;0.82;;;;;;;8.52;61.72;99120.38;4986832;28;20099;-67
2022/11/13 10:14:35;;;;;;;4.80;2.92;;;;;;;8.75;60.44;99131.94;4999622;28;20046;-67
2022/11/13 10:17:14;;;;;;;2.20;0.98;;;;;;;8.60;59.22;99123.66;4996251;28;20030;-66
2022/11/13 10:20:00;;;;;;;1.63;0.70;;;;;;;8.59;57.60;99152.09;4986766;28;20034;-67
2022/11/13 10:22:45;;;;;;;1.33;0.68;;;;;;;8.64;56.44;99155.44;4987588;28;20030;-66
2022/11/13 10:25:17;;;;;;;1.48;0.70;;;;;;;8.59;56.59;99150.38;5011961;28;20053;-66
2022/11/13 10:27:57;;;;;;;2.03;0.70;;;;;;;8.42;57.52;99135.22;4986751;28;20037;-67
2022/11/13 10:30:23;;;;;;;3.95;0.60;;;;;;;8.66;57.74;99157.97;4977741;28;20022;-67
2022/11/13 10:32:49;;;;;;;0.90;0.70;;;;;;;8.61;57.69;99169.25;5002688;28;20429;-67
2022/11/13 10:35:37;;;;;;;0.80;0.80;;;;;;;8.43;58.15;99147.22;4994234;28;20026;-68
2022/11/13 10:38:08;;;;;;;1.48;0.50;;;;;;;8.42;57.24;99155.88;4985121;28;20223;-70
2022/11/13 10:40:36;;;;;;;0.90;0.40;;;;;;;8.37;57.63;99173.16;4999655;28;20038;-67
2022/11/13 10:43:19;;;;;;;0.50;0.50;;;;;;;8.48;58.21;99185.88;4984744;28;20102;-67
2022/11/13 10:45:57;;;;;;;0.50;0.50;;;;;;;8.28;59.41;99178.53;4986289;28;20064;-67
2022/11/13 10:48:31;;;;;;;1.35;0.57;;;;;;;8.21;60.01;99175.22;4966734;29;20093;-68
2022/11/13 10:51:01;;;;;;;0.52;0.52;;;;;;;8.18;60.23;99185.59;4968533;28;20042;-67
2022/11/13 10:53:41;;;;;;;1.88;0.73;;;;;;;8.08;60.66;99171.16;4985983;28;20044;-68
2022/11/13 10:56:33;;;;;;;0.93;0.60;;;;;;;8.13;59.24;99187.41;4986144;28;20097;-68
2022/11/13 10:59:15;;;;;;;0.50;0.50;;;;;;;8.27;58.13;99194.88;4980999;28;20034;-68
2022/11/13 11:01:43;;;;;;;1.25;0.70;;;;;;;8.10;57.38;99175.41;4974718;28;20105;-68
2022/11/13 11:04:26;;;;;;;0.73;0.50;;;;;;;8.43;59.15;99178.19;4985873;28;20030;-68
2022/11/13 11:06:53;;;;;;;3.25;1.02;;;;;;;8.44;59.15;99155.81;4984631;28;20101;-67
2022/11/13 11:09:19;;;;;;;5.60;0.90;;;;;;;8.48;57.67;99190.19;4985376;28;20027;-68
2022/11/13 11:12:22;;;;;;;3.53;1.10;;;;;;;8.61;58.53;99181.31;4985684;28;20264;-65
2022/11/13 11:14:53;;;;;;;1.48;0.98;;;;;;;8.36;57.64;99201.56;5003983;28;20039;-66
2022/11/13 11:17:25;;;;;;;4.03;0.80;;;;;;;8.62;58.78;99201.06;4985772;28;20034;-66
2022/11/13 11:20:29;;;;;;;4.65;1.77;;;;;;;8.41;60.49;99203.19;4993090;28;20030;-67
2022/11/13 11:23:02;;;;;;;3.80;0.80;;;;;;;8.23;60.79;99206.13;4995463;28;20215;-67
2022/11/13 11:25:39;;;;;;;1.50;0.52;;;;;;;7.74;64.32;99215.63;4952010;28;20055;-67
2022/11/13 11:28:20;;;;;;;1.27;0.82;;;;;;;8.05;64.36;99227.94;4983745;28;20026;-68
2022/11/13 11:30:52;;;;;;;1.58;0.63;;;;;;;8.07;64.68;99214.16;4985027;28;20046;-66
2022/11/13 11:33:38;;;;;;;1.75;0.60;;;;;;;8.03;64.62;99232.31;4964830;29;20058;-67
2022/11/13 11:36:18;;;;;;;1.88;0.63;;;;;;;8.11;63.48;99227.88;4983457;28;20094;-68
2022/11/13 11:39:11;;;;;;;3.95;0.75;;;;;;;7.89;64.32;99202.44;4985369;28;20057;-67
2022/11/13 11:41:45;;;;;;;1.70;0.55;;;;;;;8.00;63.17;99212.56;4981640;28;20113;-68
2022/11/13 11:44:43;;;;;;;1.42;0.82;;;;;;;7.93;62.80;99229.03;5019907;28;20050;-70
2022/11/13 11:47:15;;;;;;;0.98;0.88;;;;;;;8.03;61.73;99222.81;4984497;28;20676;-67